sensor_id;sensor_type;location;lat;lon;timestamp;pressure;altitude;pressure_sealevel;temperature;humidity
52032;BME280;38044;45.148;39.604;2022-12-07T00:00:55;101847.69;;;-3.99;71.68
52032;BME280;38044;45.148;39.604;2022-12-07T00:03:21;101864.75;;;-3.87;71.67
52032;BME280;38044;45.148;39.604;2022-12-07T00:05:46;101814.16;;;-4.21;71.42
52032;BME280;38044;45.148;39.604;2022-12-07T00:08:12;101817.81;;;-4.06;71.38
52032;BME280;38044;45.148;39.604;2022-12-07T00:10:38;101858.22;;;-3.82;71.39
52032;BME280;38044;45.148;39.604;2022-12-07T00:13:04;101840.81;;;-3.92;71.33
52032;BME280;38044;45.148;39.604;2022-12-07T00:15:30;101856.41;;;-3.82;71.63
52032;BME280;38044;45.148;39.604;2022-12-07T00:17:55;101879.56;;;-3.77;71.51
52032;BME280;38044;45.148;39.604;2022-12-07T00:20:21;101780.84;;;-4.37;71.62
52032;BME280;38044;45.148;39.604;2022-12-07T00:22:47;101864.75;;;-3.87;71.49
52032;BME280;38044;45.148;39.604;2022-12-07T00:25:13;101733.09;;;-4.65;71.42
52032;BME280;38044;45.148;39.604;2022-12-07T00:27:39;101866.22;;;-3.92;71.66
52032;BME280;38044;45.148;39.604;2022-12-07T00:30:05;101853.44;;;-3.87;71.75
52032;BME280;38044;45.148;39.604;2022-12-07T00:32:31;101856.56;;;-3.92;71.58
52032;BME280;38044;45.148;39.604;2022-12-07T00:34:57;101820.09;;;-4.11;71.67
52032;BME280;38044;45.148;39.604;2022-12-07T00:37:23;101840.13;;;-4.02;71.94
52032;BME280;38044;45.148;39.604;2022-12-07T00:39:48;101853.94;;;-4.00;71.99
52032;BME280;38044;45.148;39.604;2022-12-07T00:42:14;101681.72;;;-5.01;71.97
52032;BME280;38044;45.148;39.604;2022-12-07T00:44:40;101853.59;;;-4.05;72.26
52032;BME280;38044;45.148;39.604;2022-12-07T00:47:06;101761.31;;;-4.51;72.24
52032;BME280;38044;45.148;39.604;2022-12-07T00:49:32;101825.00;;;-4.24;72.42
52032;BME280;38044;45.148;39.604;2022-12-07T00:51:58;101830.28;;;-4.08;72.33
52032;BME280;38044;45.148;39.604;2022-12-07T00:54:24;101606.22;;;-5.48;72.22
52032;BME280;38044;45.148;39.604;2022-12-07T00:56:49;101844.22;;;-4.16;72.43
52032;BME280;38044;45.148;39.604;2022-12-07T00:59:15;101834.53;;;-4.15;72.43
52032;BME280;38044;45.148;39.604;2022-12-07T01:01:41;101817.94;;;-4.24;72.61
52032;BME280;38044;45.148;39.604;2022-12-07T01:04:07;101691.53;;;-5.03;72.50
52032;BME280;38044;45.148;39.604;2022-12-07T01:06:34;101796.75;;;-4.39;72.35
52032;BME280;38044;45.148;39.604;2022-12-07T01:09:00;101792.16;;;-4.45;72.38
52032;BME280;38044;45.148;39.604;2022-12-07T01:11:28;101823.03;;;-4.22;72.52
52032;BME280;38044;45.148;39.604;2022-12-07T01:13:55;101833.22;;;-4.19;72.35
52032;BME280;38044;45.148;39.604;2022-12-07T01:16:23;101829.94;;;-4.21;72.43
52032;BME280;38044;45.148;39.604;2022-12-07T01:18:52;101833.53;;;-4.22;72.39
52032;BME280;38044;45.148;39.604;2022-12-07T01:21:23;101835.19;;;-4.21;72.44
52032;BME280;38044;45.148;39.604;2022-12-07T01:23:49;101817.78;;;-4.22;72.61
52032;BME280;38044;45.148;39.604;2022-12-07T01:26:21;101664.44;;;-5.19;72.47
52032;BME280;38044;45.148;39.604;2022-12-07T01:28:48;101763.75;;;-4.49;72.39
52032;BME280;38044;45.148;39.604;2022-12-07T01:31:16;101667.06;;;-5.19;72.33
52032;BME280;38044;45.148;39.604;2022-12-07T01:33:48;101689.75;;;-4.94;72.29
52032;BME280;38044;45.148;39.604;2022-12-07T01:38:53;101757.34;;;-4.55;72.04
52032;BME280;38044;45.148;39.604;2022-12-07T01:41:22;101853.25;;;-4.10;72.24
52032;BME280;38044;45.148;39.604;2022-12-07T01:46:33;101817.13;;;-4.16;72.15
52032;BME280;38044;45.148;39.604;2022-12-07T01:48:59;101772.63;;;-4.50;72.13
52032;BME280;38044;45.148;39.604;2022-12-07T01:51:26;101749.81;;;-4.66;72.28
52032;BME280;38044;45.148;39.604;2022-12-07T01:53:52;101812.88;;;-4.25;72.42
52032;BME280;38044;45.148;39.604;2022-12-07T01:56:20;101834.84;;;-4.26;72.70
52032;BME280;38044;45.148;39.604;2022-12-07T01:58:48;101777.38;;;-4.54;72.63
52032;BME280;38044;45.148;39.604;2022-12-07T02:01:14;101741.25;;;-4.77;72.64
52032;BME280;38044;45.148;39.604;2022-12-07T02:03:43;101759.31;;;-4.65;72.68
52032;BME280;38044;45.148;39.604;2022-12-07T02:06:12;101622.75;;;-5.47;72.66
52032;BME280;38044;45.148;39.604;2022-12-07T02:08:39;101810.19;;;-4.50;72.66
52032;BME280;38044;45.148;39.604;2022-12-07T02:11:06;101704.47;;;-5.09;72.91
52032;BME280;38044;45.148;39.604;2022-12-07T02:13:34;101830.56;;;-4.36;72.95
52032;BME280;38044;45.148;39.604;2022-12-07T02:16:23;101824.84;;;-4.31;73.08
52032;BME280;38044;45.148;39.604;2022-12-07T02:19:29;101813.19;;;-4.37;72.84
52032;BME280;38044;45.148;39.604;2022-12-07T02:25:23;101820.72;;;-4.34;73.17
52032;BME280;38044;45.148;39.604;2022-12-07T02:28:31;101820.06;;;-4.36;73.28
52032;BME280;38044;45.148;39.604;2022-12-07T02:31:04;101822.03;;;-4.38;73.38
52032;BME280;38044;45.148;39.604;2022-12-07T02:33:40;101816.44;;;-4.43;73.43
52032;BME280;38044;45.148;39.604;2022-12-07T02:36:28;101822.34;;;-4.33;73.33
52032;BME280;38044;45.148;39.604;2022-12-07T02:38:58;101818.56;;;-4.38;73.35
52032;BME280;38044;45.148;39.604;2022-12-07T02:41:36;101827.94;;;-4.36;73.35
52032;BME280;38044;45.148;39.604;2022-12-07T02:44:07;101816.78;;;-4.38;73.36
52032;BME280;38044;45.148;39.604;2022-12-07T02:46:44;101816.47;;;-4.35;73.46
52032;BME280;38044;45.148;39.604;2022-12-07T02:49:12;101782.63;;;-4.62;73.32
52032;BME280;38044;45.148;39.604;2022-12-07T02:51:43;101656.53;;;-5.36;73.50
52032;BME280;38044;45.148;39.604;2022-12-07T02:54:20;101767.88;;;-4.63;73.46
52032;BME280;38044;45.148;39.604;2022-12-07T02:56:53;101827.94;;;-4.36;73.69
52032;BME280;38044;45.148;39.604;2022-12-07T03:08:30;101817.09;;;-4.33;73.87
52032;BME280;38044;45.148;39.604;2022-12-07T03:11:14;101573.84;;;-5.81;73.60
52032;BME280;38044;45.148;39.604;2022-12-07T03:13:54;101799.38;;;-4.47;73.77
52032;BME280;38044;45.148;39.604;2022-12-07T03:16:45;101709.75;;;-4.93;73.92
52032;BME280;38044;45.148;39.604;2022-12-07T03:19:22;101801.69;;;-4.36;73.84
52032;BME280;38044;45.148;39.604;2022-12-07T03:21:58;101815.16;;;-4.31;73.79
52032;BME280;38044;45.148;39.604;2022-12-07T03:24:26;101811.88;;;-4.24;73.59
52032;BME280;38044;45.148;39.604;2022-12-07T03:27:06;101801.03;;;-4.30;73.62
52032;BME280;38044;45.148;39.604;2022-12-07T03:29:40;101751.63;;;-4.59;73.59
52032;BME280;38044;45.148;39.604;2022-12-07T03:35:01;101805.00;;;-4.25;73.81
52032;BME280;38044;45.148;39.604;2022-12-07T03:40:06;101614.44;;;-5.43;73.87
52032;BME280;38044;45.148;39.604;2022-12-07T03:42:33;101816.47;;;-4.10;73.83
52032;BME280;38044;45.148;39.604;2022-12-07T03:45:01;101797.75;;;-4.15;73.51
52032;BME280;38044;45.148;39.604;2022-12-07T03:47:29;101832.59;;;-3.97;73.32
52032;BME280;38044;45.148;39.604;2022-12-07T03:50:34;101753.78;;;-4.30;73.00
52032;BME280;38044;45.148;39.604;2022-12-07T03:53:08;101826.50;;;-3.81;72.96
52032;BME280;38044;45.148;39.604;2022-12-07T03:55:39;101791.72;;;-3.99;72.78
52032;BME280;38044;45.148;39.604;2022-12-07T03:58:11;101750.19;;;-4.20;72.62
52032;BME280;38044;45.148;39.604;2022-12-07T04:00:38;101822.72;;;-3.78;72.81
52032;BME280;38044;45.148;39.604;2022-12-07T04:03:05;101678.66;;;-4.63;72.47
52032;BME280;38044;45.148;39.604;2022-12-07T04:05:31;101806.97;;;-3.87;72.49
52032;BME280;38044;45.148;39.604;2022-12-07T04:07:57;101758.38;;;-4.07;72.38
52032;BME280;38044;45.148;39.604;2022-12-07T04:10:23;101746.56;;;-4.11;72.48
52032;BME280;38044;45.148;39.604;2022-12-07T04:12:49;101637.94;;;-4.76;72.15
52032;BME280;38044;45.148;39.604;2022-12-07T04:15:15;101687.50;;;-4.48;72.18
52032;BME280;38044;45.148;39.604;2022-12-07T04:17:40;101819.75;;;-3.59;72.20
52032;BME280;38044;45.148;39.604;2022-12-07T04:20:07;101732.09;;;-4.07;72.22
52032;BME280;38044;45.148;39.604;2022-12-07T04:22:33;101810.88;;;-3.58;72.06
52032;BME280;38044;45.148;39.604;2022-12-07T04:24:59;101801.19;;;-3.57;71.89
52032;BME280;38044;45.148;39.604;2022-12-07T04:27:24;101795.59;;;-3.54;72.05
52032;BME280;38044;45.148;39.604;2022-12-07T04:29:50;101596.63;;;-4.73;71.87
52032;BME280;38044;45.148;39.604;2022-12-07T04:32:16;101756.69;;;-3.75;72.08
52032;BME280;38044;45.148;39.604;2022-12-07T04:34:42;101800.00;;;-3.38;71.81
52032;BME280;38044;45.148;39.604;2022-12-07T04:37:08;101804.78;;;-3.42;72.03
52032;BME280;38044;45.148;39.604;2022-12-07T04:39:34;101798.03;;;-3.45;72.10
52032;BME280;38044;45.148;39.604;2022-12-07T04:42:00;101652.72;;;-4.34;71.80
52032;BME280;38044;45.148;39.604;2022-12-07T04:44:27;101631.72;;;-4.50;71.77
52032;BME280;38044;45.148;39.604;2022-12-07T04:46:53;101779.84;;;-3.54;71.87
52032;BME280;38044;45.148;39.604;2022-12-07T04:49:20;101684.84;;;-4.15;71.82
52032;BME280;38044;45.148;39.604;2022-12-07T04:51:47;101815.41;;;-3.27;71.44
52032;BME280;38044;45.148;39.604;2022-12-07T04:54:14;101719.09;;;-3.84;71.59
52032;BME280;38044;45.148;39.604;2022-12-07T04:56:42;101804.59;;;-3.41;71.72
52032;BME280;38044;45.148;39.604;2022-12-07T04:59:10;101810.47;;;-3.22;71.54
52032;BME280;38044;45.148;39.604;2022-12-07T05:01:39;101806.72;;;-3.28;71.74
52032;BME280;38044;45.148;39.604;2022-12-07T05:04:12;101800.31;;;-3.33;71.82
52032;BME280;38044;45.148;39.604;2022-12-07T05:06:45;101815.09;;;-3.32;71.63
52032;BME280;38044;45.148;39.604;2022-12-07T05:09:11;101811.84;;;-3.34;71.55
52032;BME280;38044;45.148;39.604;2022-12-07T05:11:37;101801.25;;;-3.26;71.42
52032;BME280;38044;45.148;39.604;2022-12-07T05:16:38;101683.50;;;-3.95;71.50
52032;BME280;38044;45.148;39.604;2022-12-07T05:19:06;101820.59;;;-3.03;nan
52032;BME280;38044;45.148;39.604;2022-12-07T05:21:32;101682.50;;;-3.86;71.44
52032;BME280;38044;45.148;39.604;2022-12-07T05:23:58;101797.78;;;-3.10;71.51
52032;BME280;38044;45.148;39.604;2022-12-07T05:26:24;101752.63;;;-3.30;71.07
52032;BME280;38044;45.148;39.604;2022-12-07T05:28:53;101672.44;;;-3.66;70.72
52032;BME280;38044;45.148;39.604;2022-12-07T05:31:20;101812.16;;;-2.59;70.41
52032;BME280;38044;45.148;39.604;2022-12-07T05:33:47;101795.63;;;-2.76;70.12
52032;BME280;38044;45.148;39.604;2022-12-07T05:36:13;101816.19;;;-2.71;70.28
52032;BME280;38044;45.148;39.604;2022-12-07T05:38:41;101836.44;;;-2.40;70.40
52032;BME280;38044;45.148;39.604;2022-12-07T05:41:08;101810.78;;;-2.46;69.95
52032;BME280;38044;45.148;39.604;2022-12-07T05:43:54;101725.50;;;-2.91;69.54
52032;BME280;38044;45.148;39.604;2022-12-07T05:46:20;101783.34;;;-2.29;69.13
52032;BME280;38044;45.148;39.604;2022-12-07T05:48:46;101831.69;;;-1.61;68.17
52032;BME280;38044;45.148;39.604;2022-12-07T05:51:12;101816.09;;;-1.48;67.51
52032;BME280;38044;45.148;39.604;2022-12-07T05:53:38;101773.03;;;-1.63;66.98
52032;BME280;38044;45.148;39.604;2022-12-07T05:56:04;101775.16;;;-1.44;66.45
52032;BME280;38044;45.148;39.604;2022-12-07T05:58:29;101804.00;;;-1.27;66.19
52032;BME280;38044;45.148;39.604;2022-12-07T06:01:14;101612.72;;;-2.57;66.25
52032;BME280;38044;45.148;39.604;2022-12-07T06:03:40;101678.72;;;-2.20;66.81
52032;BME280;38044;45.148;39.604;2022-12-07T06:06:06;101590.72;;;-2.64;67.08
52032;BME280;38044;45.148;39.604;2022-12-07T06:08:31;101804.00;;;-1.42;67.12
52032;BME280;38044;45.148;39.604;2022-12-07T06:10:57;101804.72;;;-1.48;66.87
52032;BME280;38044;45.148;39.604;2022-12-07T06:13:41;101690.34;;;-2.15;67.03
52032;BME280;38044;45.148;39.604;2022-12-07T06:16:07;101757.97;;;-1.54;66.94
52032;BME280;38044;45.148;39.604;2022-12-07T06:18:33;101805.09;;;-1.22;66.61
52032;BME280;38044;45.148;39.604;2022-12-07T06:20:59;101698.31;;;-1.55;66.04
52032;BME280;38044;45.148;39.604;2022-12-07T06:23:25;101802.88;;;-0.74;65.21
52032;BME280;38044;45.148;39.604;2022-12-07T06:25:50;101673.94;;;-1.43;64.61
52032;BME280;38044;45.148;39.604;2022-12-07T06:28:16;101841.03;;;-0.40;64.81
52032;BME280;38044;45.148;39.604;2022-12-07T06:30:42;101793.97;;;-0.30;64.22
52032;BME280;38044;45.148;39.604;2022-12-07T06:33:08;101835.44;;;0.13;63.73
52032;BME280;38044;45.148;39.604;2022-12-07T06:35:34;101756.50;;;-0.40;63.49
52032;BME280;38044;45.148;39.604;2022-12-07T06:38:00;101841.06;;;0.03;63.19
52032;BME280;38044;45.148;39.604;2022-12-07T06:40:25;101645.06;;;-1.29;63.65
52032;BME280;38044;45.148;39.604;2022-12-07T06:42:51;101797.91;;;0.03;63.59
52032;BME280;38044;45.148;39.604;2022-12-07T06:45:17;101810.97;;;0.04;63.27
52032;BME280;38044;45.148;39.604;2022-12-07T06:47:43;101799.16;;;0.00;63.80
52032;BME280;38044;45.148;39.604;2022-12-07T06:50:09;101803.00;;;0.26;63.29
52032;BME280;38044;45.148;39.604;2022-12-07T06:52:35;101777.22;;;0.06;63.20
52032;BME280;38044;45.148;39.604;2022-12-07T06:55:01;101658.63;;;-0.75;63.29
52032;BME280;38044;45.148;39.604;2022-12-07T06:57:26;101813.25;;;0.35;63.09
52032;BME280;38044;45.148;39.604;2022-12-07T06:59:53;101829.13;;;0.35;63.32
52032;BME280;38044;45.148;39.604;2022-12-07T07:02:19;101818.97;;;0.39;63.37
52032;BME280;38044;45.148;39.604;2022-12-07T07:04:45;101784.84;;;0.22;63.78
52032;BME280;38044;45.148;39.604;2022-12-07T07:07:10;101833.69;;;0.83;63.14
52032;BME280;38044;45.148;39.604;2022-12-07T07:09:36;101789.09;;;0.80;62.61
52032;BME280;38044;45.148;39.604;2022-12-07T07:12:02;101840.84;;;1.24;62.11
52032;BME280;38044;45.148;39.604;2022-12-07T07:14:28;101836.53;;;1.16;62.09
52032;BME280;38044;45.148;39.604;2022-12-07T07:16:54;101751.50;;;0.56;62.27
52032;BME280;38044;45.148;39.604;2022-12-07T07:19:20;101796.47;;;0.84;62.32
52032;BME280;38044;45.148;39.604;2022-12-07T07:21:45;101820.53;;;0.96;62.57
52032;BME280;38044;45.148;39.604;2022-12-07T07:24:11;101655.47;;;-0.14;62.67
52032;BME280;38044;45.148;39.604;2022-12-07T07:26:37;101841.53;;;0.98;62.81
52032;BME280;38044;45.148;39.604;2022-12-07T07:29:03;101853.94;;;0.97;63.22
52032;BME280;38044;45.148;39.604;2022-12-07T07:31:29;101849.44;;;0.91;63.21
52032;BME280;38044;45.148;39.604;2022-12-07T07:33:54;101664.06;;;-0.05;63.45
52032;BME280;38044;45.148;39.604;2022-12-07T07:36:20;101835.25;;;1.05;63.44
52032;BME280;38044;45.148;39.604;2022-12-07T07:38:46;101709.72;;;0.45;63.36
52032;BME280;38044;45.148;39.604;2022-12-07T07:41:12;101760.38;;;0.77;63.15
52032;BME280;38044;45.148;39.604;2022-12-07T07:43:38;101824.78;;;1.32;63.24
52032;BME280;38044;45.148;39.604;2022-12-07T07:46:04;101803.13;;;1.22;63.10
52032;BME280;38044;45.148;39.604;2022-12-07T07:48:29;101830.09;;;1.32;62.71
52032;BME280;38044;45.148;39.604;2022-12-07T07:50:55;101828.84;;;1.28;63.15
52032;BME280;38044;45.148;39.604;2022-12-07T07:53:21;101792.72;;;1.13;62.93
52032;BME280;38044;45.148;39.604;2022-12-07T07:55:51;101739.41;;;0.82;62.79
52032;BME280;38044;45.148;39.604;2022-12-07T07:58:18;101797.81;;;1.15;63.10
52032;BME280;38044;45.148;39.604;2022-12-07T08:00:43;101800.72;;;1.27;63.25
52032;BME280;38044;45.148;39.604;2022-12-07T08:03:09;101835.06;;;1.62;63.02
52032;BME280;38044;45.148;39.604;2022-12-07T08:05:37;101691.84;;;1.02;63.24
52032;BME280;38044;45.148;39.604;2022-12-07T08:08:03;101775.53;;;1.71;62.70
52032;BME280;38044;45.148;39.604;2022-12-07T08:10:29;101818.81;;;2.11;62.13
52032;BME280;38044;45.148;39.604;2022-12-07T08:12:58;101787.81;;;1.92;62.13
52032;BME280;38044;45.148;39.604;2022-12-07T08:15:38;101766.19;;;1.75;62.25
52032;BME280;38044;45.148;39.604;2022-12-07T08:18:04;101647.84;;;1.07;62.09
52032;BME280;38044;45.148;39.604;2022-12-07T08:20:31;101818.81;;;2.05;62.08
52032;BME280;38044;45.148;39.604;2022-12-07T08:22:58;101791.06;;;1.94;62.18
52032;BME280;38044;45.148;39.604;2022-12-07T08:25:24;101775.13;;;1.74;62.26
52032;BME280;38044;45.148;39.604;2022-12-07T08:27:51;101787.38;;;1.75;62.63
52032;BME280;38044;45.148;39.604;2022-12-07T08:30:18;101718.00;;;1.38;62.60
52032;BME280;38044;45.148;39.604;2022-12-07T08:32:44;101807.81;;;2.08;62.70
52032;BME280;38044;45.148;39.604;2022-12-07T08:35:11;101812.28;;;2.27;62.61
52032;BME280;38044;45.148;39.604;2022-12-07T08:37:37;101656.03;;;1.46;61.81
52032;BME280;38044;45.148;39.604;2022-12-07T08:40:04;101813.50;;;2.44;61.91
52032;BME280;38044;45.148;39.604;2022-12-07T08:42:30;101791.44;;;2.37;61.76
52032;BME280;38044;45.148;39.604;2022-12-07T08:45:14;101697.03;;;1.90;62.09
52032;BME280;38044;45.148;39.604;2022-12-07T08:47:45;101602.63;;;1.16;62.09
52032;BME280;38044;45.148;39.604;2022-12-07T08:50:12;101799.03;;;2.27;62.28
52032;BME280;38044;45.148;39.604;2022-12-07T08:52:39;101754.13;;;2.19;62.37
52032;BME280;38044;45.148;39.604;2022-12-07T08:55:06;101771.03;;;2.31;62.00
52032;BME280;38044;45.148;39.604;2022-12-07T08:57:35;101721.50;;;1.98;62.52
52032;BME280;38044;45.148;39.604;2022-12-07T09:00:03;101767.81;;;2.29;62.34
52032;BME280;38044;45.148;39.604;2022-12-07T09:02:30;101751.25;;;2.27;62.13
52032;BME280;38044;45.148;39.604;2022-12-07T09:04:56;101574.31;;;1.23;61.92
52032;BME280;38044;45.148;39.604;2022-12-07T09:07:23;101760.84;;;2.41;62.17
52032;BME280;38044;45.148;39.604;2022-12-07T09:09:49;101701.06;;;2.19;62.20
52032;BME280;38044;45.148;39.604;2022-12-07T09:12:15;101722.03;;;2.40;61.97
52032;BME280;38044;45.148;39.604;2022-12-07T09:14:41;101748.09;;;2.70;61.64
52032;BME280;38044;45.148;39.604;2022-12-07T09:17:11;101555.72;;;1.63;61.49
52032;BME280;38044;45.148;39.604;2022-12-07T09:19:38;101686.88;;;2.58;61.26
52032;BME280;38044;45.148;39.604;2022-12-07T09:22:05;101742.06;;;2.94;61.49
52032;BME280;38044;45.148;39.604;2022-12-07T09:24:31;101604.09;;;2.23;61.48
52032;BME280;38044;45.148;39.604;2022-12-07T09:26:58;101736.09;;;3.06;61.38
52032;BME280;38044;45.148;39.604;2022-12-07T09:29:24;101749.13;;;3.14;61.39
52032;BME280;38044;45.148;39.604;2022-12-07T09:31:51;101543.81;;;1.98;61.24
52032;BME280;38044;45.148;39.604;2022-12-07T09:34:17;101557.63;;;2.14;61.43
52032;BME280;38044;45.148;39.604;2022-12-07T09:36:43;101680.22;;;2.87;61.43
52032;BME280;38044;45.148;39.604;2022-12-07T09:39:09;101678.31;;;2.94;61.40
52032;BME280;38044;45.148;39.604;2022-12-07T09:41:40;101575.06;;;2.41;61.24
52032;BME280;38044;45.148;39.604;2022-12-07T09:44:11;101707.38;;;3.28;61.02
52032;BME280;38044;45.148;39.604;2022-12-07T09:46:40;101680.06;;;3.14;60.83
52032;BME280;38044;45.148;39.604;2022-12-07T09:49:17;101576.97;;;2.66;60.82
52032;BME280;38044;45.148;39.604;2022-12-07T09:51:44;101669.31;;;3.34;60.64
52032;BME280;38044;45.148;39.604;2022-12-07T09:54:15;101722.13;;;3.80;60.17
52032;BME280;38044;45.148;39.604;2022-12-07T09:56:42;101535.31;;;2.66;59.98
52032;BME280;38044;45.148;39.604;2022-12-07T09:59:18;101676.06;;;3.61;59.97
52032;BME280;38044;45.148;39.604;2022-12-07T10:01:48;101717.22;;;3.77;60.05
52032;BME280;38044;45.148;39.604;2022-12-07T10:04:20;101553.25;;;2.71;60.21
52032;BME280;38044;45.148;39.604;2022-12-07T10:06:47;101591.09;;;2.91;60.47
52032;BME280;38044;45.148;39.604;2022-12-07T10:09:15;101583.66;;;2.75;60.53
52032;BME280;38044;45.148;39.604;2022-12-07T10:12:04;101710.44;;;3.56;60.85
52032;BME280;38044;45.148;39.604;2022-12-07T10:14:33;101703.59;;;3.42;60.78
52032;BME280;38044;45.148;39.604;2022-12-07T10:16:59;101509.44;;;2.17;61.45
52032;BME280;38044;45.148;39.604;2022-12-07T10:19:32;101704.63;;;3.41;61.82
52032;BME280;38044;45.148;39.604;2022-12-07T10:24:27;101685.31;;;3.27;61.67
52032;BME280;38044;45.148;39.604;2022-12-07T10:26:54;101660.47;;;3.08;61.54
52032;BME280;38044;45.148;39.604;2022-12-07T10:29:31;101683.56;;;3.39;61.38
52032;BME280;38044;45.148;39.604;2022-12-07T10:34:50;101696.19;;;3.51;61.18
52032;BME280;38044;45.148;39.604;2022-12-07T10:37:19;101682.81;;;3.57;60.78
52032;BME280;38044;45.148;39.604;2022-12-07T10:39:52;101548.53;;;2.73;60.81
52032;BME280;38044;45.148;39.604;2022-12-07T10:44:50;101564.53;;;2.91;60.49
52032;BME280;38044;45.148;39.604;2022-12-07T10:53:28;101552.72;;;2.87;60.52
52032;BME280;38044;45.148;39.604;2022-12-07T11:10:10;101680.69;;;3.91;61.41
52032;BME280;38044;45.148;39.604;2022-12-07T11:26:51;101662.53;;;3.63;65.07
52032;BME280;38044;45.148;39.604;2022-12-07T11:32:07;101706.00;;;3.50;69.82
52032;BME280;38044;45.148;39.604;2022-12-07T11:37:21;101698.09;;;3.05;73.95
52032;BME280;38044;45.148;39.604;2022-12-07T11:39:51;101695.72;;;2.90;75.04
52032;BME280;38044;45.148;39.604;2022-12-07T11:42:37;101699.84;;;2.86;76.50
52032;BME280;38044;45.148;39.604;2022-12-07T11:45:21;101577.25;;;1.99;77.03
52032;BME280;38044;45.148;39.604;2022-12-07T11:47:59;101652.56;;;2.57;77.80
52032;BME280;38044;45.148;39.604;2022-12-07T11:50:41;101524.94;;;1.75;78.21
52032;BME280;38044;45.148;39.604;2022-12-07T11:55:53;101665.66;;;2.58;79.26
52032;BME280;38044;45.148;39.604;2022-12-07T12:06:34;101653.03;;;2.47;80.83
52032;BME280;38044;45.148;39.604;2022-12-07T12:09:12;101586.22;;;2.05;80.71
52032;BME280;38044;45.148;39.604;2022-12-07T12:22:45;101633.88;;;2.32;82.57
52032;BME280;38044;45.148;39.604;2022-12-07T12:27:53;101648.16;;;2.37;82.71
52032;BME280;38044;45.148;39.604;2022-12-07T12:30:36;101617.34;;;2.36;82.77
52032;BME280;38044;45.148;39.604;2022-12-07T12:33:14;101627.28;;;2.47;81.88
52032;BME280;38044;45.148;39.604;2022-12-07T12:35:41;101618.72;;;2.45;81.69
52032;BME280;38044;45.148;39.604;2022-12-07T12:38:32;101473.75;;;1.68;81.18
52032;BME280;38044;45.148;39.604;2022-12-07T12:41:01;101643.72;;;2.76;80.12
52032;BME280;38044;45.148;39.604;2022-12-07T12:43:46;101606.44;;;2.58;78.74
52032;BME280;38044;45.148;39.604;2022-12-07T12:49:30;101642.78;;;2.96;76.72
52032;BME280;38044;45.148;39.604;2022-12-07T12:52:00;101634.22;;;2.93;76.50
52032;BME280;38044;45.148;39.604;2022-12-07T12:54:31;101604.13;;;3.00;76.30
52032;BME280;38044;45.148;39.604;2022-12-07T13:02:32;101626.47;;;3.24;74.08
52032;BME280;38044;45.148;39.604;2022-12-07T13:20:58;101504.16;;;2.55;71.29
52032;BME280;38044;45.148;39.604;2022-12-07T13:26:18;101658.59;;;3.47;71.21
52032;BME280;38044;45.148;39.604;2022-12-07T13:28:52;101595.19;;;2.94;69.68
52032;BME280;38044;45.148;39.604;2022-12-07T13:31:43;101636.38;;;3.10;69.40
52032;BME280;38044;45.148;39.604;2022-12-07T13:34:29;101650.94;;;3.26;68.82
52032;BME280;38044;45.148;39.604;2022-12-07T13:36:56;101430.91;;;1.71;68.72
52032;BME280;38044;45.148;39.604;2022-12-07T13:39:24;101664.97;;;3.08;68.88
52032;BME280;38044;45.148;39.604;2022-12-07T13:41:53;101619.03;;;2.69;68.39
52032;BME280;38044;45.148;39.604;2022-12-07T13:44:21;101657.69;;;2.97;68.33
52032;BME280;38044;45.148;39.604;2022-12-07T13:46:58;101655.25;;;2.95;68.13
52032;BME280;38044;45.148;39.604;2022-12-07T13:49:30;101628.44;;;2.65;68.38
52032;BME280;38044;45.148;39.604;2022-12-07T13:52:16;101662.06;;;2.84;68.42
52032;BME280;38044;45.148;39.604;2022-12-07T13:54:46;101692.53;;;2.75;68.24
52032;BME280;38044;45.148;39.604;2022-12-07T13:57:15;101688.06;;;2.69;68.13
52032;BME280;38044;45.148;39.604;2022-12-07T13:59:42;101653.81;;;2.54;67.79
52032;BME280;38044;45.148;39.604;2022-12-07T14:02:27;101628.94;;;2.42;67.87
52032;BME280;38044;45.148;39.604;2022-12-07T14:05:07;101669.69;;;2.67;68.18
52032;BME280;38044;45.148;39.604;2022-12-07T14:07:33;101640.38;;;2.42;67.72
52032;BME280;38044;45.148;39.604;2022-12-07T14:10:01;101648.97;;;2.38;67.79
52032;BME280;38044;45.148;39.604;2022-12-07T14:12:30;101676.69;;;2.55;67.60
52032;BME280;38044;45.148;39.604;2022-12-07T14:14:56;101650.56;;;2.45;67.08
52032;BME280;38044;45.148;39.604;2022-12-07T14:17:24;101639.19;;;2.38;67.20
52032;BME280;38044;45.148;39.604;2022-12-07T14:19:58;101670.16;;;2.58;67.23
52032;BME280;38044;45.148;39.604;2022-12-07T14:22:38;101686.47;;;2.55;67.07
52032;BME280;38044;45.148;39.604;2022-12-07T14:27:46;101683.66;;;2.50;67.34
52032;BME280;38044;45.148;39.604;2022-12-07T14:30:15;101675.03;;;2.54;67.26
52032;BME280;38044;45.148;39.604;2022-12-07T14:32:43;101678.34;;;2.50;66.82
52032;BME280;38044;45.148;39.604;2022-12-07T14:35:16;101656.31;;;2.42;66.81
52032;BME280;38044;45.148;39.604;2022-12-07T14:37:45;101646.75;;;2.35;66.67
52032;BME280;38044;45.148;39.604;2022-12-07T14:40:19;101660.75;;;2.48;66.99
52032;BME280;38044;45.148;39.604;2022-12-07T14:42:45;101666.88;;;2.56;66.64
52032;BME280;38044;45.148;39.604;2022-12-07T14:45:18;101604.59;;;2.07;67.03
52032;BME280;38044;45.148;39.604;2022-12-07T14:47:45;101671.38;;;2.48;66.76
52032;BME280;38044;45.148;39.604;2022-12-07T14:50:13;101515.41;;;1.47;66.91
52032;BME280;38044;45.148;39.604;2022-12-07T14:52:40;101675.06;;;2.47;66.66
52032;BME280;38044;45.148;39.604;2022-12-07T14:55:23;101641.25;;;2.23;66.65
52032;BME280;38044;45.148;39.604;2022-12-07T14:57:49;101679.97;;;2.51;66.49
52032;BME280;38044;45.148;39.604;2022-12-07T15:00:17;101681.16;;;2.55;66.22
52032;BME280;38044;45.148;39.604;2022-12-07T15:02:48;101684.41;;;2.57;66.21
52032;BME280;38044;45.148;39.604;2022-12-07T15:05:16;101678.72;;;2.53;65.88